Datum max min   Außentemperatur Tagesdurchschnitt Außenfeuchte Tagesdurchschnitt Taupunkt Tagesdurchschnitt Windchill Tagesdurchschnitt Windgeschwindigkeit Tagesdurchschnitt   Mindesttemperatur Höchsttemperatur Höchste Windgeschwindigkeit  Tägliche Niederschlagsmenge 
  °C % °C °C km/h   °C °C km/h mm/m²
 
mittelwert
01.01.1976     1015,7 1,5           0,8 2,9   20,8
02.01.1976     1011,8 1,1           -2,0 6,0   14,9
03.01.1976     1000,6 1,3           -1,5 5,5   8,7
04.01.1976     1018,1 -2,3           -3,6 -0,2   2,8
05.01.1976     1012,6 -0,1           -7,4 1,9   8,0
06.01.1976     1018,5 0,2           -0,6 2,9   8,9
07.01.1976     1022,7 2,3           -1,2 3,9   0,1
08.01.1976     1023,1 2,7           2,3 4,3   0,0
09.01.1976     1023,9 1,8           1,4 2,4   0,0
10.01.1976     1018,5 1,1           0,0 1,7   4,2
11.01.1976     1014,2 6,2           1,2 6,9   11,1
12.01.1976     1019,4 5,2           4,3 7,0   1,6
13.01.1976     1017,7 3,3           1,0 6,0   5,2
14.01.1976     1015,1 3,7           -0,6 5,5   12,4
15.01.1976     1018,3 0,4           -1,6 2,9   10,4
16.01.1976     1023,1 -1,6           -4,2 0,6   1,1
17.01.1976     1019,5 -1,1           -2,5 1,4   0,8
18.01.1976     1019,7 -0,8           0,1 0,1   0,1
19.01.1976     1016,6 -0,4           -1,1 0,3   1,4
20.01.1976     1005,4 1,7           -0,7 2,9   8,1
21.01.1976     1004,9 0,7           0,2 2,7   10,9
22.01.1976     1004,7 1,5           -0,5 3,5   15,3
23.01.1976     1000,3 1,6           -0,5 4,6   4,1
24.01.1976     1003,5 -3,6           -5,3 -0,3   0,3
25.01.1976     1004,2 -4,3           -5,9 -2,5   2,9
26.01.1976     1008,1 -7,9           -10,8 -4,6   0,0
27.01.1976     1003,4 -7,8           -11,0 -3,3   0,0
28.01.1976     1011,0 -12,6           -15,0 -9,3   0,2
29.01.1976     1014,2 -11,4           -15,3 -10,4   0,0
30.01.1976     1010,7 -9,6           -14,4 -8,2   0,0
31.01.1976     1006,9 -5,8           -8,4 -4,7   0,0
01.02.1976     1007,7 -5,4           -6,4 4,8   0,0
02.02.1976     1007,7 -2,9           -6,4 -4,8   0,0
03.02.1976     1005,9 -2,3           -2,6 -1,5   0,0
04.02.1976     1010,2 -1,9           -2,5 -1,0   0,0
05.02.1976     1012,5 -1,2           -2,9 -0,5   0,0
06.02.1976     1013,3 -0,4           -1,0 1,0   0,0
07.02.1976     1019,7 -2,4           -1,5 0,5   0,0
08.02.1976     1023,3 -3,6           -8,0 0,1   0,0
09.02.1976     1025,7 -0,6           -3,2 0,7   0,0
10.02.1976     1017,9 0,2           -0,7 1,0   3,1
11.02.1976     1010,3 0,4           0,1 1,6   0,7
12.02.1976     1009,3 -1,7           -3,0 0,1   0,5
13.02.1976     993,0 -3,0           -3,5 -1,2   2,8
14.02.1976     1005,4 -6,1           -7,4 -3,4   0,9
15.02.1976     1018,2 -7,0           -8,4 -5,9   0,0
16.02.1976     1021,1 -3,8           -2,6 -0,2   0,0
17.02.1976     1016,5 -0,6           -1,5 2,0   0,0
18.02.1976     1019,9 -0,4           -4,3 1,9   0,0
19.02.1976     1019,7 -2,2           -4,0 0,5   0,0
20.02.1976     1024,9 -1,6           -3,5 2,1   0,0
21.02.1976     1024,7 -1,3           -4,9 4,4   0,0
22.02.1976     1024,7 -1,4           -5,0 4,0   0,0
23.02.1976     1031,4 -3,4           -5,0 -2,5   0,0
24.02.1976     1033,0 -2,0           -4,8 -0,8   0,8
25.02.1976     1033,3 -2,2           -1,0 3,3   0,0
26.02.1976     1031,8 2,9           1,4 5,5   0,0
27.02.1976     1032,3 3,2           1,3 8,8   0,0
28.02.1976     1029,4 2,4           -4,0 10,0   0,0
29.02.1976     1027,0 2,5           -1,0 6,2   0,2
01.03.1976     1024,2 3,8           1,8 7,7   0,0
02.03.1976     1024,9 0,6           -1,7 4,0   0,0
03.03.1976     1029,1 -1,1           -3,5 2,7   0,0
04.03.1976     1028,5 -4,2           -7,7 0,4   0,0
05.03.1976     1024,6 -5,3           -7,8 -2,4   0,0
06.03.1976     1020,9 -5,0           -6,6 -2,5   0,3
07.03.1976     1015,3 -6,5           -9,3 -4,3   0,1
08.03.1976     1013,3 -5,0           -7,7 -2,5   0,5
09.03.1976     1022,3 -6,2           -7,5 -3,0   0,4
10.03.1976     1028,9 -6,7           -12,4 -0,8   0,0
11.03.1976     1022,2 -4,7           -12,1 2,2   0,0
12.03.1976     1006,2 -1,6           -10,3 3,4   0,0
13.03.1976     998,9 1,0           -2,7 7,0   0,3
14.03.1976     1003,5 -0,8           -5,5 5,5   0,0
15.03.1976     1006,5 0,7           -3,4 4,4   0,0
16.03.1976     1009,7 2,3           -2,6 6,3   0,1
17.03.1976     1014,6 2,2           0,6 6,0   0,2
18.03.1976     1013,8 2,7           0,0 3,8   4,1
19.03.1976     1015,1 -3,2           -5,2 3,2   1,7
20.03.1976     1022,2 -4,7           -10,7 -1,2   0,0
21.03.1976     1019,8 -6,5           -8,3 -3,5   0,0
22.03.1976     1011,4 -5,4           -7,8 -1,9   0,0
23.03.1976     1009,8 -3,8           -9,0 2,5   0,0
24.03.1976     1014,6 -2,0           -6,7 3,0   0,0
25.03.1976     1016,1 0,6           -3,0 0,9   3,1
26.03.1976     1019,9 5,4           0,8 7,6   4,5
27.03.1976     1029,5 2,9           -0,7 6,3   0,6
28.03.1976     1030,6 5,6           2,0 9,2   0,3
29.03.1976     1019,7 8,8           3,3 13,7   0,0
30.03.1976     1015,4 4,4           3,0 8,7   0,0
31.03.1976     1017,0 6,8           1,5 11,5   0,0
01.04.1976     1017,4 8,5           2,5 16,0   0,0
02.04.1976     1012,9 11,6           5,0 20,0   0,0
03.04.1976     1013,4 8,8           2,6 14,5   0,0
04.04.1976     1012,9 9,8           -0,2 18,0   2,5
05.04.1976     1015,5 7,1           5,0 11,0   2,3
06.04.1976     1011,4 8,0           3,0 15,5   0,1
07.04.1976     1010,9 1,5           0,2 5,7   0,3
08.04.1976     1016,5 -0,4           -1,6 3,0   0,8
09.04.1976     1023,7 -0,8           -2,1 2,0   0,0
10.04.1976     1022,9 2,5           -5,6 7,6   0,0
11.04.1976     1013,7 3,0           -3,2 10,0   0,0
12.04.1976     1009,4 5,2           -2,0 10,4   0,0
13.04.1976     1012,9 5,6           -0,7 12,2   0,0
14.04.1976     1010,9 5,8           0,4 12,6   1,3
15.04.1976     1015,3 8,3           0,0 14,0   0,0
16.04.1976     1020,9 5,4           3,5 8,4   0,0
17.04.1976     1023,9 9,6           4,8 15,4   1,9
18.04.1976     1022,5 10,5           2,5 17,7   0,0
19.04.1976     1020,1 10,6           4,1 16,7   0,0
20.04.1976     1019,9 7,9           2,7 13,8   0,0
21.04.1976     1014,1 7,0           0,1 13,7   0,0
22.04.1976     1012,2 -0,6           -3,0 5,1   0,0
23.04.1976     1010,7 -0,7           -4,5 2,6   3,8
24.04.1976     1009,3 1,0           -0,8 1,7   3,5
25.04.1976     1012,6 2,1           0,2 3,1   3,1
26.04.1976     1015,3 4,2           1,7 8,5   0,0
27.04.1976     1013,8 1,6           -1,0 6,2   2,3
28.04.1976     1017,5 -1,8           -3,6 1,4   1,0
29.04.1976     1021,7 0,2           -5,3 4,5   0,0
30.04.1976     1022,5 3,4           -5,1 8,2   0,0
01.05.1976     1021,4 5,2           -2,5 11,7   0,0
02.05.1976     1013,5 10,2           -1,1 16,9   0,0
03.05.1976     1008,6 9,0           3,6 13,8   3,0
04.05.1976     1012,3 9,1           5,1 14,2   0,0
05.05.1976     1020,1 11,6           1,6 18,0   0,0
06.05.1976     1022,9 14,7           5,5 22,3   0,0
07.05.1976     1021,1 15,0           7,9 22,0   0,0
08.05.1976     1016,9 17,0           7,3 24,7   0,0
09.05.1976     1010,6 18,4           10,2 24,9   0,0
10.05.1976     1010,2 18,0           9,1 25,0   0,0
11.05.1976     1012,1 12,8           9,8 24,2   17,4
12.05.1976     1012,5 11,6           7,0 16,8   0,5
13.05.1976     1011,5 8,0           6,1 12,8   1,7
14.05.1976     1018,6 5,0           3,2 9,4   0,0
15.05.1976     1021,4 10,0           3,1 17,9   0,0
16.05.1976     1022,6 12,6           3,0 17,0   0,0
17.05.1976     1021,9 13,7           6,8 20,1   0,0
18.05.1976     1018,5 15,9           7,9 23,2   0,1
19.05.1976     1013,3 16,5           7,5 24,7   2,9
20.05.1976     1012,2 11,8           10,0 14,2   10,1
21.05.1976     1014,9 8,7           7,1 13,4   0,8
22.05.1976     1020,2 9,0           3,1 11,5   0,0
23.05.1976     1022,7 10,1           8,4 14,5   0,6
24.05.1976     1013,8 7,1           5,2 15,2   6,1
25.05.1976     1015,7 10,6           5,7 16,7   0,2
26.05.1976     1012,9 11,6           5,0 15,0   0,0
27.05.1976     1012,1 8,8           6,1 12,5   4,8
28.05.1976     1014,5 9,1           6,8 12,4   0,4
29.05.1976     1015,9 12,4           2,4 19,0   0,2
30.05.1976     1015,3 13,7           10,0 18,7   4,5
31.05.1976     1015,8 9,0           7,5 13,0   8,4
01.06.1976     1015,0 10,2           6,3 13,3   12,5
02.06.1976     1012,7 7,9           6,0 11,4   9,8
03.06.1976     1018,3 6,7           5,1 9,0   0,4
04.06.1976     1022,6 8,9           5,9 13,0   0,4
05.06.1976     1024,6 10,8           6,2 15,8   0,0
06.06.1976     1021,4 14,0           3,5 19,7   0,0
07.06.1976     1020,2 15,4           6,2 20,3   0,0
08.06.1976     1021,3 17,2           8,7 22,1   0,0
09.06.1976     1021,1 16,1           9,6 22,1   0,0
10.06.1976     1020,6 16,4           7,4 23,4   0,0
11.06.1976     1022,5 13,8           11,8 18,4   0,1
12.06.1976     1021,9 16,0           5,0 22,1   0,4
13.06.1976     1019,0 16,8           13,6 23,7   0,0
14.06.1976     1020,3 15,9           9,0 21,4   0,0
15.06.1976     1014,5 17,0           9,7 20,9   0,1
16.06.1976     1012,6 9,6           7,9 16,3   0,0
17.06.1976     1018,3 13,1           6,2 19,3   0,0
18.06.1976     1016,3 16,7           4,5 22,7   0,0
19.06.1976     1013,0 18,5           7,7 23,6   0,7
20.06.1976     1013,5 17,8           12,7 22,6   0,0
21.06.1976     1021,0 15,0           12,5 21,2   0,0
22.06.1976     1022,9 17,0           8,5 23,1   0,0
23.06.1976     1022,6 17,5           9,7 23,0   0,0
24.06.1976     1023,7 19,0           10,2 25,8   0,0
25.06.1976     1024,7 20,7           12,3 26,6   0,0
26.06.1976     1025,7 21,5           12,5 27,7   0,0
27.06.1976     1025,7 21,6           11,9 28,1   0,0
28.06.1976     1023,5 22,8           11,5 29,0   0,0
29.06.1976     1023,0 20,8           15,4 27,2   0,0
30.06.1976     1024,1 20,6           12,1 26,1   0,0
01.07.1976     1023,3 20,4           12,8 26,7   0,0
02.07.1976     1022,3 20,4           11,0 27,1   0,0
03.07.1976     1020,5 21,5           10,8 29,1   0,0
04.07.1976     1016,6 23,2           10,5 31,0   0,0
05.07.1976     1015,3 20,7           14,6 28,2   0,0
06.07.1976     1018,2 17,5           8,5 23,9   0,0
07.07.1976     1015,7 18,8           8,0 25,6   0,0
08.07.1976     1011,3 18,1           9,3 26,3   1,4
09.07.1976     1009,4 16,8           12,3 22,7   0,0
10.07.1976     1014,1 16,9           8,5 23,3   0,0
11.07.1976     1015,9 18,4           8,2 25,2   0,0
12.07.1976     1013,0 21,9           13,5 28,5   0,0
13.07.1976     1013,5 19,5           13,6 26,5   3,6
14.07.1976     1018,1 19,2           14,9 24,3   0,0
15.07.1976     1019,0 20,8           12,5 28,2   0,0
16.07.1976     1018,1 23,8           12,8 31,3   0,0
17.07.1976     1017,0 24,1           15,6 33,3   7,1
18.07.1976     1018,7 20,8           17,1 28,2   0,0
19.07.1976     1018,9 20,4           13,3 27,7   6,7
20.07.1976     1017,3 18,0           17,3 20,2   6,8
21.07.1976     1013,3 15,4           13,3 20,0   1,2
22.07.1976     1017,4 12,2           10,2 15,0   1,5
23.07.1976     1020,2 14,2           10,4 16,7   0,0
24.07.1976     1020,5 14,7           10,6 19,0   4,0
25.07.1976     1019,3 13,4           10,0 17,2   8,0
26.07.1976     1016,6 14,1           11,4 14,9   1,7
27.07.1976     1017,7 15,7           13,2 20,5   0,0
28.07.1976     1016,5 13,9           9,8 18,2   0,0
29.07.1976     1017,1 11,3           12,7 15,9   0,0
30.07.1976     1012,3 16,6           6,6 21,8   0,0
31.07.1976     1010,5 15,5           11,0 21,7   5,4
01.08.1976     1017,8 9,4           7,1 13,9   4,8
02.08.1976     1020,9 11,4           5,1 15,6   0,5
03.08.1976     1018,9 14,8           10,4 18,8   1,0
04.08.1976     1018,6 11,2           9,1 16,2   4,7
05.08.1976     1021,7 10,9           6,5 16,1   0,0
06.08.1976     1022,5 13,3           4,1 17,8   0,0
07.08.1976     1021,3 13,5           9,4 18,2   0,0
08.08.1976     1023,4 14,3           6,0 20,4   0,0
09.08.1976     1022,6 15,1           8,0 20,6   0,0
10.08.1976     1020,3 16,5           10,4 21,8   0,0
11.08.1976     1019,4 15,0           11,8 21,2   0,0
12.08.1976     1018,3 15,2           7,4 21,5   0,0
13.08.1976     1018,1 13,2           10,4 22,1   0,5
14.08.1976     1020,2 14,1           8,6 21,4   1,1
15.08.1976     1019,7 15,0           5,6 20,6   0,0
16.08.1976     1019,0 14,6           7,8 21,4   0,0
17.08.1976     1019,9 13,9           7,7 21,1   0,0
18.08.1976     1021,5 13,7           10,6 20,5   0,6
19.08.1976     1022,3 15,2           9,1 19,8   6,6
20.08.1976     1020,5 12,4           10,7 20,5   0,3
21.08.1976     1020,6 11,0           10,9 17,0   0,0
22.08.1976     1022,1 13,2           4,4 18,5   0,0
23.08.1976     1020,6 14,8           5,0 20,1   0,0
24.08.1976     1021,4 16,2           4,5 23,4   0,0
25.08.1976     1022,2 17,9           6,0 25,3   0,0
26.08.1976     1018,6 13,2           6,9 26,0   0,0
27.08.1976     1015,7 16,0           11,3 19,0   8,4
28.08.1976     1017,9 18,2           10,5 21,5   0,0
29.08.1976     1017,0 17,2           11,0 25,9   0,0
30.08.1976     1011,9 13,0           11,7 21,6   0,0
31.08.1976     1011,4 14,0           12,5 16,7   2,6
01.09.1976     1008,6 10,0           12,0 16,0   0,0
02.09.1976     1006,6 8,3           7,6 14,0   11,7
03.09.1976     1013,7 9,4           6,9 13,0   0,2
04.09.1976     1017,1 8,5           4,3 13,5   3,1
05.09.1976     1022,1 11,0           7,4 13,1   0,0
06.09.1976     1027,8 12,8           5,5 15,0   0,0
07.09.1976     1026,5 12,9           6,1 19,4   0,0
08.09.1976     1019,5 13,2           4,7 20,8   0,0
09.09.1976     1007,1 8,0           8,0 17,9   9,2
10.09.1976     1008,2 9,4           7,6 12,4   0,0
11.09.1976     1011,4 14,2           5,8 14,4   0,0
12.09.1976     1013,8 15,5           6,5 22,0   0,0
13.09.1976     1012,3 9,6           7,5 24,0   0,0
14.09.1976     1012,6 10,8           8,0 14,2   5,4
15.09.1976     1009,5 9,7           4,0 17,2   0,0
16.09.1976     1008,5 9,6           7,4 15,0   8,4
17.09.1976     1015,7 9,4           8,6 11,4   0,6
18.09.1976     1022,2 9,8           3,6 13,1   0,0
19.09.1976     1023,8 9,2           6,7 11,9   0,0
20.09.1976     1023,9 7,6           7,9 12,4   0,0
21.09.1976     1023,7 9,6           0,6 13,6   0,0
22.09.1976     1022,5 9,4           4,3 15,3   0,0
23.09.1976     1018,1 11,5           3,0 17,3   0,0
24.09.1976     1014,3 11,4           3,4 18,3   0,2
25.09.1976     1015,0 11,3           10,6 12,6   0,7
26.09.1976     1015,8 15,0           7,5 14,3   0,0
27.09.1976     1014,9 15,8           8,0 21,5   0,2
28.09.1976     1012,9 12,9           13,6 21,1   6,7
29.09.1976     1014,6 12,8           11,6 16,5   1,1
30.09.1976     1016,3 10,9           10,2 16,2   0,0
01.10.1976     1015,5 10,9           9,7 14,7   0,0
02.10.1976     1015,8 11,6           9,3 12,1   0,0
03.10.1976     1015,1 10,7           10,8 13,6   3,9
04.10.1976     1010,7 9,1           9,2 15,6   5,4
05.10.1976     1016,2 9,8           7,3 13,0   0,1
06.10.1976     1019,7 9,7           1,9 12,9   0,0
07.10.1976     1020,1 15,6           11,4 20,0   0,0
08.10.1976     1020,7 13,7           11,4 19,3   0,0
09.10.1976     1016,2 13,6           8,2 20,3   0,0
10.10.1976     1015,5 12,3           7,8 20,0   0,0
11.10.1976     1007,1 11,7           4,7 21,2   0,0
12.10.1976     998,3 13,2           8,4 19,9   0,0
13.10.1976     994,9 9,8           9,2 12,0   7,4
14.10.1976     1001,8 7,4           6,0 9,8   0,1
15.10.1976     1007,7 6,8           4,8 9,0   0,3
16.10.1976     1011,8 4,9           -0,1 10,2   6,3
17.10.1976     1007,3 1,5           0,9 6,0   1,6
18.10.1976     1008,2 4,9           1,4 6,1   0,0
19.10.1976     1009,3 3,8           2,5 4,8   0,0
20.10.1976     1012,9 4,7           3,2 9,5   0,0
21.10.1976     1018,1 5,0           0,6 10,4   0,0
22.10.1976     1019,8 6,5           1,8 11,1   0,0
23.10.1976     1013,0 5,3           1,7 11,9   0,0
24.10.1976     1010,3 3,5           2,4 6,1   0,0
25.10.1976     1008,6 3,4           1,2 8,6   0,0
26.10.1976     1004,9 3,6           0,6 8,5   0,0
27.10.1976     1002,9 4,2           1,8 6,0   0,0
28.10.1976     1006,9 4,4           1,4 7,2   0,0
29.10.1976     1011,4 5,0           3,3 6,9   0,0
30.10.1976     1001,3 4,0           3,2 6,0   5,9
31.10.1976     1006,3 1,9           1,0 3,7   1,5
01.11.1976     1011,5 1,7           -0,5 5,7   0,0
02.11.1976     1009,8 4,0           0,5 7,4   0,2
03.11.1976     1002,1 4,9           2,4 7,1   2,7
04.11.1976     1008,3 1,6           -2,2 6,4   0,0
05.11.1976     1014,6 2,3           0,3 5,6   0,0
06.11.1976     1009,7 6,2           -1,3 8,6   0,0
07.11.1976     1004,9 6,8           5,6 10,2   13,0
08.11.1976     1014,7 4,7           3,0 8,2   0,0
09.11.1976     1013,1 4,0           0,1 11,4   0,0
10.11.1976     1008,2 3,9           1,2 7,5   0,5
11.11.1976     1009,1 5,6           2,3 6,6   0,1
12.11.1976     1011,9 4,2           -0,2 8,5   0,0
13.11.1976     1011,7 3,9           1,7 5,4   0,2
14.11.1976     1017,3 4,2           3,5 4,6   5,2
15.11.1976     1022,2 3,7           3,1 4,4   2,1
16.11.1976     1025,8 1,6           1,2 3,3   0,6
17.11.1976     1028,3 1,8           0,9 3,2   0,0
18.11.1976     1028,5 2,4           1,0 4,1   0,0
19.11.1976     1028,2 1,0           0,0 2,2   0,5
20.11.1976     1025,8 -1,1           -1,5 1,2   0,0
21.11.1976     1020,6 -1,4           -1,8 -0,8   0,0
22.11.1976     1013,9 -1,0           -3,3 0,0   2,7
23.11.1976     1014,9 -1,4           -2,3 -0,3   0,1
24.11.1976     1013,8 -0,1           -2,0 0,5   10,8
25.11.1976     1021,4 6,8           -1,6 1,8   2,5
26.11.1976     1021,3 2,0           1,7 2,5   0,1
27.11.1976     1018,3 1,8           0,8 1,9   3,1
28.11.1976     1019,1 3,2           1,8 4,3   0,6
29.11.1976     1016,3 3,5           2,0 6,3   5,2
30.11.1976     1001,9 6,4           1,4 7,9   15,4
01.12.1976     988,9 1,6           -0,1 7,6   2,0
02.12.1976     973,3 0,8           -0,4 1,8   3,1
03.12.1976     979,8 -0,2           -1,6 1,2   0,6
04.12.1976     986,5 0,0           -1,1 0,4   0,9
05.12.1976     997,3 -0,8           -1,5 0,1   0,6
06.12.1976     999,7 0,4           -2,0 1,1   1,6
07.12.1976     994,7 3,0           1,1 3,8   14,2
08.12.1976     1001,8 2,9           1,7 4,1   3,8
09.12.1976     1010,5 2,6           1,8 4,3   0,1
10.12.1976     1014,6 -1,6           -2,5 2,0   0,0
11.12.1976     1011,0 -2,7           -3,3 -1,9   3,0
12.12.1976     1012,3 -2,5           -3,2 -1,5   4,7
13.12.1976     1018,3 -3,2           -4,4 -1,8   2,5
14.12.1976     1020,9 -5,5           -8,2 -2,6   0,4
15.12.1976     1020,5 -5,6           -7,7 -3,7   0,9
16.12.1976     1015,3 -7,2           -8,5 -5,5   0,0
17.12.1976     1014,9 -6,7           -12,9 -4,7   0,0
18.12.1976     1013,0 -5,0           -5,6 -1,6   0,0
19.12.1976     1014,7 -2,7           -6,7 -0,4   0,2
20.12.1976     1017,3 -0,3           -2,2 0,8   0,1
21.12.1976     1016,9 -0,8           -1,5 0,3   0,0
22.12.1976     1021,5 0,0           -2,9 1,1   0,0
23.12.1976     1021,1 -2,0           -2,2 0,4   0,2
24.12.1976     1013,7 -3,3           -3,9 -2,1   1,8
25.12.1976     1014,5 -8,4           -11,9 -2,6   0,9
26.12.1976     1014,3 -8,6           -11,5 -5,7   1,3
27.12.1976     1010,7 -6,9           -11,1 -4,5   0,0
28.12.1976     1003,4 -8,7           -10,3 -7,2   0,5
29.12.1976     1012,6 -12,5           -15,0 -5,1   0,0
30.12.1976     1013,3 -15,0           -21,2 -8,6   0,0
31.12.1976     1008,2 -6,6           -15,1 -3,5   0,0